Kristina — V7ZT9 — position and weather

sailwx.info

Track history (hours):
 
Tides and Currents Weather Stations Pressure Air Temp Water Temp Dewpoint Dewpoint Depression Visibility Wind Speed Wind Dir Waves Ship Positions

Kristina

Last reported at 2018-Feb-17 20:19 UTC. Time now 2018-Feb-20 23:23 UTC.
Position N 31°06' E 122°31'.

Length 270 m; draft 10.5 m.

Type: Ship (hazmat cat A). MMSI: 538004913.

Date/timePositionNaut miles runAvg speedWind from/ knotsBaromVisibWave heightAir tempDewpointWater temp
2018-Feb-17 20:19N 31°06' E 122°31'4 9.6
2018-Feb-17 19:53N 31°06' E 122°26'514.2
2018-Feb-17 19:30N 31°06' E 122°20'814.8
2018-Feb-17 18:59N 31°10' E 122°12'715.0
2018-Feb-17 18:30N 31°14' E 122°05'815.2
2018-Feb-17 18:00N 31°15' E 121°57'1015.0
2018-Feb-17 17:20N 31°18' E 121°45'43 0.8
2018-Feb-15 14:37N 31°12' E 122°35'0 0.1
2018-Feb-15 13:10N 31°12' E 122°35'0 0.1
2018-Feb-15 08:49N 31°12' E 122°36'0 0.1
2018-Feb-15 07:46N 31°12' E 122°36'0 0.1
2018-Feb-15 07:28N 31°12' E 122°36'0 0.0
2018-Feb-14 21:58N 31°12' E 122°35'0 0.0
2018-Feb-14 21:28N 31°12' E 122°35'0 0.1
2018-Feb-14 20:52N 31°12' E 122°35'0 0.0
2018-Feb-14 20:28N 31°12' E 122°35'0 0.1
2018-Feb-14 19:58N 31°12' E 122°36'0 0.1
2018-Feb-14 19:28N 31°12' E 122°36'0 0.0
2018-Feb-14 18:58N 31°12' E 122°36'0 0.0
2018-Feb-14 18:19N 31°12' E 122°36'0 0.1
2018-Feb-14 17:58N 31°12' E 122°36'0 0.0
2018-Feb-14 17:07N 31°12' E 122°36'0 0.1
2018-Feb-14 16:58N 31°12' E 122°36'0 0.2
2018-Feb-14 16:25N 31°12' E 122°35'0 0.1
2018-Feb-14 15:58N 31°12' E 122°35'0 0.1
2018-Feb-14 15:28N 31°12' E 122°35'0 0.0
2018-Feb-14 14:55N 31°12' E 122°35'0 0.0
2018-Feb-14 13:19N 31°12' E 122°35'0 0.0
2018-Feb-14 12:58N 31°12' E 122°35'0 0.1
2018-Feb-14 10:37N 31°12' E 122°36'0 0.3
2018-Feb-14 10:28N 31°12' E 122°36'0 0.1
2018-Feb-14 09:58N 31°12' E 122°36'0 0.1
2018-Feb-14 09:13N 31°12' E 122°36'0 0.0
2018-Feb-14 08:58N 31°12' E 122°36'0 0.0
2018-Feb-14 08:22N 31°12' E 122°36'0 0.1
2018-Feb-14 07:55N 31°12' E 122°36'0 0.0
2018-Feb-14 06:28N 31°12' E 122°36'0 0.0
2018-Feb-14 01:28N 31°12' E 122°35'0 0.1
2018-Feb-13 20:07N 31°12' E 122°36'0 0.0
2018-Feb-13 19:58N 31°12' E 122°36'0 0.0
2018-Feb-13 09:16N 31°12' E 122°36'0 0.0
2018-Feb-13 08:58N 31°12' E 122°36'0 0.1
2018-Feb-13 08:25N 31°12' E 122°36'31210.4
2018-Feb-12 02:21N 36°02' E 120°17'3 9.4
2018-Feb-12 02:00N 36°01' E 120°13'0 0.6
2018-Feb-12 01:30N 36°01' E 120°13'0 0.0
2018-Feb-12 00:06N 36°01' E 120°13'0 0.0
2018-Feb-11 23:48N 36°01' E 120°13'0 0.0
2018-Feb-11 23:30N 36°01' E 120°13'0 0.0
2018-Feb-11 22:56N 36°01' E 120°13'0 0.0
2018-Feb-11 22:21N 36°01' E 120°13'0 0.0
2018-Feb-11 21:47N 36°01' E 120°13'0 0.0
2018-Feb-11 21:27N 36°01' E 120°13'0 0.0
2018-Feb-11 20:54N 36°01' E 120°13'0 0.0
2018-Feb-11 19:45N 36°01' E 120°13'0 0.0
2018-Feb-11 19:27N 36°01' E 120°13'0 0.0
2018-Feb-11 18:18N 36°01' E 120°13'0 0.0
2018-Feb-11 17:45N 36°01' E 120°13'0 0.0
2018-Feb-11 16:51N 36°01' E 120°13'0 0.0
2018-Feb-11 16:15N 36°01' E 120°13'0 0.0
2018-Feb-11 14:48N 36°01' E 120°13'0 0.0
2018-Feb-11 14:30N 36°01' E 120°13'0 0.0
2018-Feb-11 13:18N 36°01' E 120°13'0 0.0
2018-Feb-11 11:15N 36°01' E 120°13'0 0.0
2018-Feb-11 11:00N 36°01' E 120°13'0 0.0
2018-Feb-11 10:30N 36°01' E 120°13'0 0.1
2018-Feb-11 09:21N 36°01' E 120°13'1 4.3
2018-Feb-11 09:00N 36°02' E 120°14'510.3
2018-Feb-11 08:30N 36°01' E 120°21'710.4
2018-Feb-11 07:51N 36°00' E 120°29'  
Track history (hours):
 
Tides and Currents Weather Stations Pressure Air Temp Water Temp Dewpoint Dewpoint Depression Visibility Wind Speed Wind Dir Waves Ship Positions

Kristina

Last reported at 2018-Feb-17 20:19 UTC. Time now 2018-Feb-20 23:23 UTC.
Position N 31°06' E 122°31'.

Length 270 m; draft 10.5 m.

Type: Ship (hazmat cat A). MMSI: 538004913.

Date/timePositionNaut miles runAvg speedWind from/ knotsBaromVisibWave heightAir tempDewpointWater temp
2018-Feb-17 20:19N 31°06' E 122°31'4 9.6
2018-Feb-17 19:53N 31°06' E 122°26'514.2
2018-Feb-17 19:30N 31°06' E 122°20'814.8
2018-Feb-17 18:59N 31°10' E 122°12'715.0
2018-Feb-17 18:30N 31°14' E 122°05'815.2
2018-Feb-17 18:00N 31°15' E 121°57'1015.0
2018-Feb-17 17:20N 31°18' E 121°45'43 0.8
2018-Feb-15 14:37N 31°12' E 122°35'0 0.1
2018-Feb-15 13:10N 31°12' E 122°35'0 0.1
2018-Feb-15 08:49N 31°12' E 122°36'0 0.1
2018-Feb-15 07:46N 31°12' E 122°36'0 0.1
2018-Feb-15 07:28N 31°12' E 122°36'0 0.0
2018-Feb-14 21:58N 31°12' E 122°35'0 0.0
2018-Feb-14 21:28N 31°12' E 122°35'0 0.1
2018-Feb-14 20:52N 31°12' E 122°35'0 0.0
2018-Feb-14 20:28N 31°12' E 122°35'0 0.1
2018-Feb-14 19:58N 31°12' E 122°36'0 0.1
2018-Feb-14 19:28N 31°12' E 122°36'0 0.0
2018-Feb-14 18:58N 31°12' E 122°36'0 0.0
2018-Feb-14 18:19N 31°12' E 122°36'0 0.1
2018-Feb-14 17:58N 31°12' E 122°36'0 0.0
2018-Feb-14 17:07N 31°12' E 122°36'0 0.1
2018-Feb-14 16:58N 31°12' E 122°36'0 0.2
2018-Feb-14 16:25N 31°12' E 122°35'0 0.1
2018-Feb-14 15:58N 31°12' E 122°35'0 0.1
2018-Feb-14 15:28N 31°12' E 122°35'0 0.0
2018-Feb-14 14:55N 31°12' E 122°35'0 0.0
2018-Feb-14 13:19N 31°12' E 122°35'0 0.0
2018-Feb-14 12:58N 31°12' E 122°35'0 0.1
2018-Feb-14 10:37N 31°12' E 122°36'0 0.3
2018-Feb-14 10:28N 31°12' E 122°36'0 0.1
2018-Feb-14 09:58N 31°12' E 122°36'0 0.1
2018-Feb-14 09:13N 31°12' E 122°36'0 0.0
2018-Feb-14 08:58N 31°12' E 122°36'0 0.0
2018-Feb-14 08:22N 31°12' E 122°36'0 0.1
2018-Feb-14 07:55N 31°12' E 122°36'0 0.0
2018-Feb-14 06:28N 31°12' E 122°36'0 0.0
2018-Feb-14 01:28N 31°12' E 122°35'0 0.1
2018-Feb-13 20:07N 31°12' E 122°36'0 0.0
2018-Feb-13 19:58N 31°12' E 122°36'0 0.0
2018-Feb-13 09:16N 31°12' E 122°36'0 0.0
2018-Feb-13 08:58N 31°12' E 122°36'0 0.1
2018-Feb-13 08:25N 31°12' E 122°36'31210.4
2018-Feb-12 02:21N 36°02' E 120°17'3 9.4
2018-Feb-12 02:00N 36°01' E 120°13'0 0.6
2018-Feb-12 01:30N 36°01' E 120°13'0 0.0
2018-Feb-12 00:06N 36°01' E 120°13'0 0.0
2018-Feb-11 23:48N 36°01' E 120°13'0 0.0
2018-Feb-11 23:30N 36°01' E 120°13'0 0.0
2018-Feb-11 22:56N 36°01' E 120°13'0 0.0
2018-Feb-11 22:21N 36°01' E 120°13'0 0.0
2018-Feb-11 21:47N 36°01' E 120°13'0 0.0
2018-Feb-11 21:27N 36°01' E 120°13'0 0.0
2018-Feb-11 20:54N 36°01' E 120°13'0 0.0
2018-Feb-11 19:45N 36°01' E 120°13'0 0.0
2018-Feb-11 19:27N 36°01' E 120°13'0 0.0
2018-Feb-11 18:18N 36°01' E 120°13'0 0.0
2018-Feb-11 17:45N 36°01' E 120°13'0 0.0
2018-Feb-11 16:51N 36°01' E 120°13'0 0.0
2018-Feb-11 16:15N 36°01' E 120°13'0 0.0
2018-Feb-11 14:48N 36°01' E 120°13'0 0.0
2018-Feb-11 14:30N 36°01' E 120°13'0 0.0
2018-Feb-11 13:18N 36°01' E 120°13'0 0.0
2018-Feb-11 11:15N 36°01' E 120°13'0 0.0
2018-Feb-11 11:00N 36°01' E 120°13'0 0.0
2018-Feb-11 10:30N 36°01' E 120°13'0 0.1
2018-Feb-11 09:21N 36°01' E 120°13'1 4.3
2018-Feb-11 09:00N 36°02' E 120°14'510.3
2018-Feb-11 08:30N 36°01' E 120°21'710.4
2018-Feb-11 07:51N 36°00' E 120°29'  

Dump ship's entire track history